sensor_id;sensor_type;location;lat;lon;timestamp;temperature;humidity
8340;DHT22;4207;49.314;7.162;2023-02-28T00:01:31;-1.10;97.70
8340;DHT22;4207;49.314;7.162;2023-02-28T00:03:59;-1.20;97.70
8340;DHT22;4207;49.314;7.162;2023-02-28T00:06:28;-1.20;97.90
8340;DHT22;4207;49.314;7.162;2023-02-28T00:08:57;-1.30;98.00
8340;DHT22;4207;49.314;7.162;2023-02-28T00:11:25;-1.30;98.10
8340;DHT22;4207;49.314;7.162;2023-02-28T00:13:54;-1.30;98.20
8340;DHT22;4207;49.314;7.162;2023-02-28T00:16:22;-1.30;98.30
8340;DHT22;4207;49.314;7.162;2023-02-28T00:18:50;-1.40;98.40
8340;DHT22;4207;49.314;7.162;2023-02-28T00:21:19;-1.40;98.50
8340;DHT22;4207;49.314;7.162;2023-02-28T00:23:48;-1.40;98.60
8340;DHT22;4207;49.314;7.162;2023-02-28T00:26:17;-1.40;98.60
8340;DHT22;4207;49.314;7.162;2023-02-28T00:28:48;-1.40;98.70
8340;DHT22;4207;49.314;7.162;2023-02-28T00:31:16;-1.40;98.80
8340;DHT22;4207;49.314;7.162;2023-02-28T00:33:44;-1.40;98.80
8340;DHT22;4207;49.314;7.162;2023-02-28T00:36:14;-1.40;98.80
8340;DHT22;4207;49.314;7.162;2023-02-28T00:38:42;-1.40;98.80
8340;DHT22;4207;49.314;7.162;2023-02-28T00:41:10;-1.40;98.90
8340;DHT22;4207;49.314;7.162;2023-02-28T00:43:40;-1.40;99.00
8340;DHT22;4207;49.314;7.162;2023-02-28T00:46:13;-1.40;99.10
8340;DHT22;4207;49.314;7.162;2023-02-28T00:48:41;-1.40;99.10
8340;DHT22;4207;49.314;7.162;2023-02-28T00:51:10;-1.50;99.20
8340;DHT22;4207;49.314;7.162;2023-02-28T00:53:37;-1.50;99.30
8340;DHT22;4207;49.314;7.162;2023-02-28T00:56:06;-1.50;99.40
8340;DHT22;4207;49.314;7.162;2023-02-28T00:58:34;-1.50;99.40
8340;DHT22;4207;49.314;7.162;2023-02-28T01:01:04;-1.40;99.50
8340;DHT22;4207;49.314;7.162;2023-02-28T01:03:32;-1.40;99.60
8340;DHT22;4207;49.314;7.162;2023-02-28T01:06:00;-1.40;99.60
8340;DHT22;4207;49.314;7.162;2023-02-28T01:08:28;-1.50;99.70
8340;DHT22;4207;49.314;7.162;2023-02-28T01:10:57;-1.50;99.80
8340;DHT22;4207;49.314;7.162;2023-02-28T01:13:25;-1.50;99.90
8340;DHT22;4207;49.314;7.162;2023-02-28T01:15:55;-1.50;99.90
8340;DHT22;4207;49.314;7.162;2023-02-28T01:18:25;-1.50;99.90
8340;DHT22;4207;49.314;7.162;2023-02-28T01:20:53;-1.50;99.90
8340;DHT22;4207;49.314;7.162;2023-02-28T01:23:22;-1.60;99.90
8340;DHT22;4207;49.314;7.162;2023-02-28T01:25:52;-1.60;99.90
8340;DHT22;4207;49.314;7.162;2023-02-28T01:28:20;-1.60;99.90
8340;DHT22;4207;49.314;7.162;2023-02-28T01:30:49;-1.60;99.90
8340;DHT22;4207;49.314;7.162;2023-02-28T01:33:18;-1.60;99.90
8340;DHT22;4207;49.314;7.162;2023-02-28T01:35:47;-1.60;99.90
8340;DHT22;4207;49.314;7.162;2023-02-28T01:38:15;-1.70;99.90
8340;DHT22;4207;49.314;7.162;2023-02-28T01:40:51;-1.70;99.90
8340;DHT22;4207;49.314;7.162;2023-02-28T01:43:21;-1.70;99.90
8340;DHT22;4207;49.314;7.162;2023-02-28T01:45:51;-1.80;99.90
8340;DHT22;4207;49.314;7.162;2023-02-28T01:48:20;-1.80;99.90
8340;DHT22;4207;49.314;7.162;2023-02-28T01:50:50;-1.80;99.90
8340;DHT22;4207;49.314;7.162;2023-02-28T01:53:23;-1.80;99.90
8340;DHT22;4207;49.314;7.162;2023-02-28T01:55:54;-1.80;99.90
8340;DHT22;4207;49.314;7.162;2023-02-28T01:58:23;-1.80;99.90
8340;DHT22;4207;49.314;7.162;2023-02-28T02:00:51;-1.80;99.90
8340;DHT22;4207;49.314;7.162;2023-02-28T02:03:20;-1.90;99.90
8340;DHT22;4207;49.314;7.162;2023-02-28T02:05:49;-1.90;99.90
8340;DHT22;4207;49.314;7.162;2023-02-28T02:08:20;-1.90;99.90
8340;DHT22;4207;49.314;7.162;2023-02-28T02:10:51;-1.90;99.90
8340;DHT22;4207;49.314;7.162;2023-02-28T02:13:42;-1.90;99.90
8340;DHT22;4207;49.314;7.162;2023-02-28T02:16:26;-1.90;99.90
8340;DHT22;4207;49.314;7.162;2023-02-28T02:19:01;-1.90;99.90
8340;DHT22;4207;49.314;7.162;2023-02-28T02:21:59;-1.90;99.90
8340;DHT22;4207;49.314;7.162;2023-02-28T02:24:57;-1.90;99.90
8340;DHT22;4207;49.314;7.162;2023-02-28T02:27:38;-1.90;99.90
8340;DHT22;4207;49.314;7.162;2023-02-28T02:33:36;-1.90;99.90
8340;DHT22;4207;49.314;7.162;2023-02-28T02:36:17;-1.90;99.90
8340;DHT22;4207;49.314;7.162;2023-02-28T02:38:49;-2.00;99.90
8340;DHT22;4207;49.314;7.162;2023-02-28T02:41:22;-1.90;99.90
8340;DHT22;4207;49.314;7.162;2023-02-28T02:43:56;-1.90;99.90
8340;DHT22;4207;49.314;7.162;2023-02-28T02:46:29;-1.80;99.90
8340;DHT22;4207;49.314;7.162;2023-02-28T02:49:00;-1.80;99.90
8340;DHT22;4207;49.314;7.162;2023-02-28T02:51:32;-1.70;99.90
8340;DHT22;4207;49.314;7.162;2023-02-28T02:54:05;-1.70;99.90
8340;DHT22;4207;49.314;7.162;2023-02-28T02:56:36;-1.70;99.90
8340;DHT22;4207;49.314;7.162;2023-02-28T02:59:10;-1.70;99.90
8340;DHT22;4207;49.314;7.162;2023-02-28T03:01:41;-1.70;99.90
8340;DHT22;4207;49.314;7.162;2023-02-28T03:04:11;-1.60;99.90
8340;DHT22;4207;49.314;7.162;2023-02-28T03:06:42;-1.60;99.90
8340;DHT22;4207;49.314;7.162;2023-02-28T03:09:11;-1.70;99.90
8340;DHT22;4207;49.314;7.162;2023-02-28T03:11:40;-1.70;99.90
8340;DHT22;4207;49.314;7.162;2023-02-28T03:14:22;-1.80;99.90
8340;DHT22;4207;49.314;7.162;2023-02-28T03:17:13;-1.80;99.90
8340;DHT22;4207;49.314;7.162;2023-02-28T03:19:52;-1.90;99.90
8340;DHT22;4207;49.314;7.162;2023-02-28T03:22:37;-1.90;99.90
8340;DHT22;4207;49.314;7.162;2023-02-28T03:25:11;-1.90;99.90
8340;DHT22;4207;49.314;7.162;2023-02-28T03:27:45;-2.00;99.90
8340;DHT22;4207;49.314;7.162;2023-02-28T03:30:23;-2.00;99.90
8340;DHT22;4207;49.314;7.162;2023-02-28T03:32:55;-2.10;99.90
8340;DHT22;4207;49.314;7.162;2023-02-28T03:35:27;-2.10;99.90
8340;DHT22;4207;49.314;7.162;2023-02-28T03:38:03;-2.10;99.90
8340;DHT22;4207;49.314;7.162;2023-02-28T03:40:35;-2.10;99.90
8340;DHT22;4207;49.314;7.162;2023-02-28T03:43:10;-2.10;99.90
8340;DHT22;4207;49.314;7.162;2023-02-28T03:45:41;-2.10;99.90
8340;DHT22;4207;49.314;7.162;2023-02-28T03:48:15;-2.20;99.90
8340;DHT22;4207;49.314;7.162;2023-02-28T03:50:47;-2.20;99.90
8340;DHT22;4207;49.314;7.162;2023-02-28T03:53:20;-2.20;99.90
8340;DHT22;4207;49.314;7.162;2023-02-28T03:55:53;-2.20;99.90
8340;DHT22;4207;49.314;7.162;2023-02-28T03:58:27;-2.30;99.90
8340;DHT22;4207;49.314;7.162;2023-02-28T04:01:03;-2.30;99.90
8340;DHT22;4207;49.314;7.162;2023-02-28T04:03:35;-2.30;99.90
8340;DHT22;4207;49.314;7.162;2023-02-28T04:06:04;-2.40;99.90
8340;DHT22;4207;49.314;7.162;2023-02-28T04:08:34;-2.40;99.90
8340;DHT22;4207;49.314;7.162;2023-02-28T04:11:05;-2.40;99.90
8340;DHT22;4207;49.314;7.162;2023-02-28T04:13:34;-2.40;99.90
8340;DHT22;4207;49.314;7.162;2023-02-28T04:16:03;-2.40;99.90
8340;DHT22;4207;49.314;7.162;2023-02-28T04:18:47;-2.40;99.90
8340;DHT22;4207;49.314;7.162;2023-02-28T04:21:15;-2.40;99.90
8340;DHT22;4207;49.314;7.162;2023-02-28T04:23:48;-2.40;99.90
8340;DHT22;4207;49.314;7.162;2023-02-28T04:26:16;-2.30;99.90
8340;DHT22;4207;49.314;7.162;2023-02-28T04:28:44;-2.30;99.90
8340;DHT22;4207;49.314;7.162;2023-02-28T04:31:12;-2.40;99.90
8340;DHT22;4207;49.314;7.162;2023-02-28T04:33:40;-2.40;99.90
8340;DHT22;4207;49.314;7.162;2023-02-28T04:36:09;-2.40;99.90
8340;DHT22;4207;49.314;7.162;2023-02-28T04:38:38;-2.40;99.90
8340;DHT22;4207;49.314;7.162;2023-02-28T04:41:07;-2.40;99.90
8340;DHT22;4207;49.314;7.162;2023-02-28T04:43:35;-2.40;99.90
8340;DHT22;4207;49.314;7.162;2023-02-28T04:46:04;-2.40;99.90
8340;DHT22;4207;49.314;7.162;2023-02-28T04:48:35;-2.40;99.90
8340;DHT22;4207;49.314;7.162;2023-02-28T04:51:04;-2.40;99.90
8340;DHT22;4207;49.314;7.162;2023-02-28T04:53:32;-2.40;99.90
8340;DHT22;4207;49.314;7.162;2023-02-28T04:56:01;-2.40;99.90
8340;DHT22;4207;49.314;7.162;2023-02-28T04:58:31;-2.40;99.90
8340;DHT22;4207;49.314;7.162;2023-02-28T05:01:02;-2.40;99.90
8340;DHT22;4207;49.314;7.162;2023-02-28T05:03:30;-2.50;99.90
8340;DHT22;4207;49.314;7.162;2023-02-28T05:05:58;-2.50;99.90
8340;DHT22;4207;49.314;7.162;2023-02-28T05:08:26;-2.50;99.90
8340;DHT22;4207;49.314;7.162;2023-02-28T05:10:56;-2.50;99.90
8340;DHT22;4207;49.314;7.162;2023-02-28T05:13:24;-2.50;99.90
8340;DHT22;4207;49.314;7.162;2023-02-28T05:15:54;-2.50;99.90
8340;DHT22;4207;49.314;7.162;2023-02-28T05:18:22;-2.60;99.90
8340;DHT22;4207;49.314;7.162;2023-02-28T05:20:50;-2.60;99.90
8340;DHT22;4207;49.314;7.162;2023-02-28T05:23:19;-2.60;99.90
8340;DHT22;4207;49.314;7.162;2023-02-28T05:25:49;-2.60;99.90
8340;DHT22;4207;49.314;7.162;2023-02-28T05:28:18;-2.60;99.90
8340;DHT22;4207;49.314;7.162;2023-02-28T05:30:47;-2.60;99.90
8340;DHT22;4207;49.314;7.162;2023-02-28T05:33:16;-2.50;99.90
8340;DHT22;4207;49.314;7.162;2023-02-28T05:35:44;-2.40;99.90
8340;DHT22;4207;49.314;7.162;2023-02-28T05:38:12;-2.30;99.90
8340;DHT22;4207;49.314;7.162;2023-02-28T05:40:41;-2.20;99.90
8340;DHT22;4207;49.314;7.162;2023-02-28T05:43:10;-2.20;99.90
8340;DHT22;4207;49.314;7.162;2023-02-28T05:45:39;-2.10;99.90
8340;DHT22;4207;49.314;7.162;2023-02-28T05:48:07;-2.20;99.90
8340;DHT22;4207;49.314;7.162;2023-02-28T05:50:37;-2.10;99.90
8340;DHT22;4207;49.314;7.162;2023-02-28T05:53:05;-2.20;99.90
8340;DHT22;4207;49.314;7.162;2023-02-28T05:55:33;-2.20;99.90
8340;DHT22;4207;49.314;7.162;2023-02-28T05:58:02;-2.10;99.90
8340;DHT22;4207;49.314;7.162;2023-02-28T06:00:30;-2.20;99.90
8340;DHT22;4207;49.314;7.162;2023-02-28T06:02:58;-2.30;99.90
8340;DHT22;4207;49.314;7.162;2023-02-28T06:05:28;-2.30;99.90
8340;DHT22;4207;49.314;7.162;2023-02-28T06:07:57;-2.30;99.90
8340;DHT22;4207;49.314;7.162;2023-02-28T06:10:26;-2.30;99.90
8340;DHT22;4207;49.314;7.162;2023-02-28T06:12:54;-2.30;99.90
8340;DHT22;4207;49.314;7.162;2023-02-28T06:15:22;-2.30;99.90
8340;DHT22;4207;49.314;7.162;2023-02-28T06:17:50;-2.30;99.90
8340;DHT22;4207;49.314;7.162;2023-02-28T06:20:19;-2.30;99.90
8340;DHT22;4207;49.314;7.162;2023-02-28T06:22:47;-2.30;99.90
8340;DHT22;4207;49.314;7.162;2023-02-28T06:25:16;-2.30;99.90
8340;DHT22;4207;49.314;7.162;2023-02-28T06:27:45;-2.20;99.90
8340;DHT22;4207;49.314;7.162;2023-02-28T06:30:13;-2.20;99.90
8340;DHT22;4207;49.314;7.162;2023-02-28T06:32:41;-2.20;99.90
8340;DHT22;4207;49.314;7.162;2023-02-28T06:35:09;-2.20;99.90
8340;DHT22;4207;49.314;7.162;2023-02-28T06:37:37;-2.20;99.90
8340;DHT22;4207;49.314;7.162;2023-02-28T06:40:09;-2.10;99.90
8340;DHT22;4207;49.314;7.162;2023-02-28T06:42:38;-2.10;99.90
8340;DHT22;4207;49.314;7.162;2023-02-28T06:45:07;-2.10;99.90
8340;DHT22;4207;49.314;7.162;2023-02-28T06:47:37;-2.10;99.90
8340;DHT22;4207;49.314;7.162;2023-02-28T06:50:06;-2.00;99.90
8340;DHT22;4207;49.314;7.162;2023-02-28T06:52:34;-2.00;99.90
8340;DHT22;4207;49.314;7.162;2023-02-28T06:55:05;-2.00;99.90
8340;DHT22;4207;49.314;7.162;2023-02-28T06:57:35;-2.00;99.90
8340;DHT22;4207;49.314;7.162;2023-02-28T07:00:07;-1.90;99.90
8340;DHT22;4207;49.314;7.162;2023-02-28T07:02:36;-1.90;99.90
8340;DHT22;4207;49.314;7.162;2023-02-28T07:05:04;-1.80;99.90
8340;DHT22;4207;49.314;7.162;2023-02-28T07:07:32;-1.80;99.90
8340;DHT22;4207;49.314;7.162;2023-02-28T07:10:03;-1.80;99.90
8340;DHT22;4207;49.314;7.162;2023-02-28T07:12:31;-1.70;99.90
8340;DHT22;4207;49.314;7.162;2023-02-28T07:14:59;-1.80;99.90
8340;DHT22;4207;49.314;7.162;2023-02-28T07:17:29;-1.70;99.90
8340;DHT22;4207;49.314;7.162;2023-02-28T07:19:57;-1.70;99.90
8340;DHT22;4207;49.314;7.162;2023-02-28T07:22:25;-1.70;99.90
8340;DHT22;4207;49.314;7.162;2023-02-28T07:24:52;-1.70;99.90
8340;DHT22;4207;49.314;7.162;2023-02-28T07:27:20;-1.70;99.90
8340;DHT22;4207;49.314;7.162;2023-02-28T07:29:52;-1.70;99.90
8340;DHT22;4207;49.314;7.162;2023-02-28T07:32:21;-1.60;99.90
8340;DHT22;4207;49.314;7.162;2023-02-28T07:34:50;-1.60;99.90
8340;DHT22;4207;49.314;7.162;2023-02-28T07:37:18;-1.50;99.90
8340;DHT22;4207;49.314;7.162;2023-02-28T07:39:46;-1.50;99.90
8340;DHT22;4207;49.314;7.162;2023-02-28T07:42:14;-1.50;99.90
8340;DHT22;4207;49.314;7.162;2023-02-28T07:44:43;-1.40;99.90
8340;DHT22;4207;49.314;7.162;2023-02-28T07:47:11;-1.30;99.90
8340;DHT22;4207;49.314;7.162;2023-02-28T07:49:39;-1.30;99.90
8340;DHT22;4207;49.314;7.162;2023-02-28T07:52:08;-1.30;99.90
8340;DHT22;4207;49.314;7.162;2023-02-28T07:54:38;-1.20;99.90
8340;DHT22;4207;49.314;7.162;2023-02-28T07:57:06;-1.20;99.90
8340;DHT22;4207;49.314;7.162;2023-02-28T07:59:34;-1.10;99.90
8340;DHT22;4207;49.314;7.162;2023-02-28T08:02:02;-1.10;99.90
8340;DHT22;4207;49.314;7.162;2023-02-28T08:04:32;-1.00;99.90
8340;DHT22;4207;49.314;7.162;2023-02-28T08:07:00;-0.90;99.90
8340;DHT22;4207;49.314;7.162;2023-02-28T08:09:29;-0.90;99.90
8340;DHT22;4207;49.314;7.162;2023-02-28T08:11:57;-0.80;99.90
8340;DHT22;4207;49.314;7.162;2023-02-28T08:14:26;-0.80;99.90
8340;DHT22;4207;49.314;7.162;2023-02-28T08:16:54;-0.70;99.90
8340;DHT22;4207;49.314;7.162;2023-02-28T08:19:22;-0.70;99.90
8340;DHT22;4207;49.314;7.162;2023-02-28T08:21:50;-0.70;99.90
8340;DHT22;4207;49.314;7.162;2023-02-28T08:24:18;-0.80;99.90
8340;DHT22;4207;49.314;7.162;2023-02-28T08:26:48;-0.70;99.90
8340;DHT22;4207;49.314;7.162;2023-02-28T08:29:19;-0.80;99.90
8340;DHT22;4207;49.314;7.162;2023-02-28T08:31:47;-0.70;99.90
8340;DHT22;4207;49.314;7.162;2023-02-28T08:34:17;-0.60;99.90
8340;DHT22;4207;49.314;7.162;2023-02-28T08:36:45;-0.50;99.90
8340;DHT22;4207;49.314;7.162;2023-02-28T08:39:13;-0.40;99.90
8340;DHT22;4207;49.314;7.162;2023-02-28T08:41:42;-0.20;99.90
8340;DHT22;4207;49.314;7.162;2023-02-28T08:44:12;0.20;99.90
8340;DHT22;4207;49.314;7.162;2023-02-28T08:46:40;0.00;99.90
8340;DHT22;4207;49.314;7.162;2023-02-28T08:49:10;0.10;99.90
8340;DHT22;4207;49.314;7.162;2023-02-28T08:51:39;0.20;99.90
8340;DHT22;4207;49.314;7.162;2023-02-28T08:54:08;0.30;99.90
8340;DHT22;4207;49.314;7.162;2023-02-28T08:56:37;0.40;99.90
8340;DHT22;4207;49.314;7.162;2023-02-28T08:59:06;0.90;99.90
8340;DHT22;4207;49.314;7.162;2023-02-28T09:01:35;0.70;99.90
8340;DHT22;4207;49.314;7.162;2023-02-28T09:04:04;0.70;99.90
8340;DHT22;4207;49.314;7.162;2023-02-28T09:06:35;0.80;99.90
8340;DHT22;4207;49.314;7.162;2023-02-28T09:09:03;0.90;99.90
8340;DHT22;4207;49.314;7.162;2023-02-28T09:11:33;1.00;99.90
8340;DHT22;4207;49.314;7.162;2023-02-28T09:14:02;0.90;99.90
8340;DHT22;4207;49.314;7.162;2023-02-28T09:16:32;0.80;99.90
8340;DHT22;4207;49.314;7.162;2023-02-28T09:19:02;0.70;99.90
8340;DHT22;4207;49.314;7.162;2023-02-28T09:21:30;1.20;99.90
8340;DHT22;4207;49.314;7.162;2023-02-28T09:23:58;0.80;99.90
8340;DHT22;4207;49.314;7.162;2023-02-28T09:26:27;0.90;99.90
8340;DHT22;4207;49.314;7.162;2023-02-28T09:29:09;1.10;99.90
8340;DHT22;4207;49.314;7.162;2023-02-28T09:31:38;1.20;99.90
8340;DHT22;4207;49.314;7.162;2023-02-28T09:34:07;1.40;99.90
8340;DHT22;4207;49.314;7.162;2023-02-28T09:36:36;1.70;99.90
8340;DHT22;4207;49.314;7.162;2023-02-28T09:39:12;1.60;99.90
8340;DHT22;4207;49.314;7.162;2023-02-28T09:41:44;1.50;99.90
8340;DHT22;4207;49.314;7.162;2023-02-28T09:44:19;1.40;99.90
8340;DHT22;4207;49.314;7.162;2023-02-28T09:46:52;1.50;99.90
8340;DHT22;4207;49.314;7.162;2023-02-28T09:49:24;1.50;99.90
8340;DHT22;4207;49.314;7.162;2023-02-28T09:51:57;1.50;99.90
8340;DHT22;4207;49.314;7.162;2023-02-28T09:54:30;1.60;99.90
8340;DHT22;4207;49.314;7.162;2023-02-28T09:57:04;1.80;99.90
8340;DHT22;4207;49.314;7.162;2023-02-28T09:59:50;1.80;99.90
8340;DHT22;4207;49.314;7.162;2023-02-28T10:02:46;1.80;99.90
8340;DHT22;4207;49.314;7.162;2023-02-28T10:05:19;2.00;99.90
8340;DHT22;4207;49.314;7.162;2023-02-28T10:07:57;2.30;99.90
8340;DHT22;4207;49.314;7.162;2023-02-28T10:10:34;1.90;99.70
8340;DHT22;4207;49.314;7.162;2023-02-28T10:13:13;1.80;99.90
8340;DHT22;4207;49.314;7.162;2023-02-28T10:15:42;1.70;99.90
8340;DHT22;4207;49.314;7.162;2023-02-28T10:18:15;1.60;99.90
8340;DHT22;4207;49.314;7.162;2023-02-28T10:20:49;1.60;99.90
8340;DHT22;4207;49.314;7.162;2023-02-28T10:23:21;1.90;99.90
8340;DHT22;4207;49.314;7.162;2023-02-28T10:25:55;1.80;99.80
8340;DHT22;4207;49.314;7.162;2023-02-28T10:28:25;2.00;99.70
8340;DHT22;4207;49.314;7.162;2023-02-28T10:30:54;2.10;99.30
8340;DHT22;4207;49.314;7.162;2023-02-28T10:33:25;2.20;99.10
8340;DHT22;4207;49.314;7.162;2023-02-28T10:35:55;2.30;98.70
8340;DHT22;4207;49.314;7.162;2023-02-28T10:38:24;2.60;99.20
8340;DHT22;4207;49.314;7.162;2023-02-28T10:41:03;2.60;98.60
8340;DHT22;4207;49.314;7.162;2023-02-28T10:43:32;2.70;97.70
8340;DHT22;4207;49.314;7.162;2023-02-28T10:46:03;2.70;97.70
8340;DHT22;4207;49.314;7.162;2023-02-28T10:48:37;3.00;97.60
8340;DHT22;4207;49.314;7.162;2023-02-28T10:51:08;2.80;97.60
8340;DHT22;4207;49.314;7.162;2023-02-28T10:53:45;2.90;97.70
8340;DHT22;4207;49.314;7.162;2023-02-28T10:56:27;3.00;97.40
8340;DHT22;4207;49.314;7.162;2023-02-28T10:58:57;3.00;97.30
8340;DHT22;4207;49.314;7.162;2023-02-28T11:01:35;3.40;96.70
8340;DHT22;4207;49.314;7.162;2023-02-28T11:04:17;2.80;96.80
8340;DHT22;4207;49.314;7.162;2023-02-28T11:06:48;2.70;97.10
8340;DHT22;4207;49.314;7.162;2023-02-28T11:09:27;2.50;97.00
8340;DHT22;4207;49.314;7.162;2023-02-28T11:11:57;2.40;97.10
8340;DHT22;4207;49.314;7.162;2023-02-28T11:14:27;2.50;97.50
8340;DHT22;4207;49.314;7.162;2023-02-28T11:16:57;2.70;97.70
8340;DHT22;4207;49.314;7.162;2023-02-28T11:19:33;3.20;97.90
8340;DHT22;4207;49.314;7.162;2023-02-28T11:22:07;3.30;97.20
8340;DHT22;4207;49.314;7.162;2023-02-28T11:24:37;3.40;96.80
8340;DHT22;4207;49.314;7.162;2023-02-28T11:27:25;3.70;96.40
8340;DHT22;4207;49.314;7.162;2023-02-28T11:29:53;4.00;95.90
8340;DHT22;4207;49.314;7.162;2023-02-28T11:32:23;4.10;95.30
8340;DHT22;4207;49.314;7.162;2023-02-28T11:35:10;4.20;94.80
8340;DHT22;4207;49.314;7.162;2023-02-28T11:37:43;4.10;93.80
8340;DHT22;4207;49.314;7.162;2023-02-28T11:40:14;3.80;93.70
8340;DHT22;4207;49.314;7.162;2023-02-28T11:42:57;3.60;94.40
8340;DHT22;4207;49.314;7.162;2023-02-28T11:45:45;3.50;94.80
8340;DHT22;4207;49.314;7.162;2023-02-28T11:48:21;3.50;95.00
8340;DHT22;4207;49.314;7.162;2023-02-28T11:50:57;3.60;93.30
8340;DHT22;4207;49.314;7.162;2023-02-28T11:53:42;3.60;94.30
8340;DHT22;4207;49.314;7.162;2023-02-28T11:56:19;3.70;92.80
8340;DHT22;4207;49.314;7.162;2023-02-28T11:58:59;3.70;92.40
8340;DHT22;4207;49.314;7.162;2023-02-28T12:01:38;3.70;92.30
8340;DHT22;4207;49.314;7.162;2023-02-28T12:04:25;3.70;92.10
8340;DHT22;4207;49.314;7.162;2023-02-28T12:07:00;3.70;92.10
8340;DHT22;4207;49.314;7.162;2023-02-28T12:09:40;3.70;92.20
8340;DHT22;4207;49.314;7.162;2023-02-28T12:12:26;3.60;91.90
8340;DHT22;4207;49.314;7.162;2023-02-28T12:21:13;3.90;92.20
8340;DHT22;4207;49.314;7.162;2023-02-28T12:24:06;4.00;92.30
8340;DHT22;4207;49.314;7.162;2023-02-28T12:26:39;4.10;92.00
8340;DHT22;4207;49.314;7.162;2023-02-28T12:29:14;4.20;92.50
8340;DHT22;4207;49.314;7.162;2023-02-28T12:31:47;4.30;92.10
8340;DHT22;4207;49.314;7.162;2023-02-28T12:34:20;4.60;91.50
8340;DHT22;4207;49.314;7.162;2023-02-28T12:36:52;4.40;91.10
8340;DHT22;4207;49.314;7.162;2023-02-28T12:39:25;4.20;90.80
8340;DHT22;4207;49.314;7.162;2023-02-28T12:42:00;3.90;91.20
8340;DHT22;4207;49.314;7.162;2023-02-28T12:44:33;4.00;91.30
8340;DHT22;4207;49.314;7.162;2023-02-28T12:47:05;3.60;91.60
8340;DHT22;4207;49.314;7.162;2023-02-28T12:49:41;3.50;92.50
8340;DHT22;4207;49.314;7.162;2023-02-28T12:52:11;3.50;92.50
8340;DHT22;4207;49.314;7.162;2023-02-28T12:54:46;3.50;92.40
8340;DHT22;4207;49.314;7.162;2023-02-28T12:57:22;3.50;91.90
8340;DHT22;4207;49.314;7.162;2023-02-28T12:59:57;3.40;91.90
8340;DHT22;4207;49.314;7.162;2023-02-28T13:02:51;3.30;91.80
8340;DHT22;4207;49.314;7.162;2023-02-28T13:05:56;3.30;91.70
8340;DHT22;4207;49.314;7.162;2023-02-28T13:08:54;3.20;92.10
8340;DHT22;4207;49.314;7.162;2023-02-28T13:11:29;3.40;92.10
8340;DHT22;4207;49.314;7.162;2023-02-28T13:14:01;3.60;91.30
8340;DHT22;4207;49.314;7.162;2023-02-28T13:16:54;3.80;91.50
8340;DHT22;4207;49.314;7.162;2023-02-28T13:19:25;3.80;90.80
8340;DHT22;4207;49.314;7.162;2023-02-28T13:21:54;3.80;90.50
8340;DHT22;4207;49.314;7.162;2023-02-28T13:24:52;3.70;90.50
8340;DHT22;4207;49.314;7.162;2023-02-28T13:27:32;3.60;90.50
8340;DHT22;4207;49.314;7.162;2023-02-28T13:33:22;3.80;90.60
8340;DHT22;4207;49.314;7.162;2023-02-28T13:36:10;4.10;90.30
8340;DHT22;4207;49.314;7.162;2023-02-28T13:38:41;4.30;90.10
8340;DHT22;4207;49.314;7.162;2023-02-28T13:41:41;4.30;89.10
8340;DHT22;4207;49.314;7.162;2023-02-28T13:44:10;4.40;89.90
8340;DHT22;4207;49.314;7.162;2023-02-28T13:49:42;4.50;89.50
8340;DHT22;4207;49.314;7.162;2023-02-28T13:52:14;4.50;90.00
8340;DHT22;4207;49.314;7.162;2023-02-28T13:55:21;4.60;89.60
8340;DHT22;4207;49.314;7.162;2023-02-28T13:58:04;5.00;88.80
8340;DHT22;4207;49.314;7.162;2023-02-28T14:00:45;4.50;88.10
8340;DHT22;4207;49.314;7.162;2023-02-28T14:03:41;4.40;88.70
8340;DHT22;4207;49.314;7.162;2023-02-28T14:06:23;4.30;89.00
8340;DHT22;4207;49.314;7.162;2023-02-28T14:09:00;4.40;89.90
8340;DHT22;4207;49.314;7.162;2023-02-28T14:11:33;4.80;89.30
8340;DHT22;4207;49.314;7.162;2023-02-28T14:14:02;4.70;88.50
8340;DHT22;4207;49.314;7.162;2023-02-28T14:16:38;4.70;87.50
8340;DHT22;4207;49.314;7.162;2023-02-28T14:19:13;4.50;87.20
8340;DHT22;4207;49.314;7.162;2023-02-28T14:21:58;4.30;87.30
8340;DHT22;4207;49.314;7.162;2023-02-28T14:24:50;4.30;87.30
8340;DHT22;4207;49.314;7.162;2023-02-28T14:27:44;4.20;88.40
8340;DHT22;4207;49.314;7.162;2023-02-28T14:36:12;4.10;89.00
8340;DHT22;4207;49.314;7.162;2023-02-28T14:38:50;4.10;89.10
8340;DHT22;4207;49.314;7.162;2023-02-28T14:41:23;4.10;88.60
8340;DHT22;4207;49.314;7.162;2023-02-28T14:43:56;4.10;88.30
8340;DHT22;4207;49.314;7.162;2023-02-28T14:46:30;4.00;88.90
8340;DHT22;4207;49.314;7.162;2023-02-28T14:49:03;4.00;89.20
8340;DHT22;4207;49.314;7.162;2023-02-28T14:51:32;4.20;89.70
8340;DHT22;4207;49.314;7.162;2023-02-28T14:54:03;5.20;90.10
8340;DHT22;4207;49.314;7.162;2023-02-28T14:56:35;4.40;89.30
8340;DHT22;4207;49.314;7.162;2023-02-28T14:59:05;4.60;90.00
8340;DHT22;4207;49.314;7.162;2023-02-28T15:01:51;4.00;88.50
8340;DHT22;4207;49.314;7.162;2023-02-28T15:04:25;4.00;88.30
8340;DHT22;4207;49.314;7.162;2023-02-28T15:07:10;4.00;87.90
8340;DHT22;4207;49.314;7.162;2023-02-28T15:09:39;4.60;89.30
8340;DHT22;4207;49.314;7.162;2023-02-28T15:12:08;4.40;89.40
8340;DHT22;4207;49.314;7.162;2023-02-28T15:14:42;4.10;89.30
8340;DHT22;4207;49.314;7.162;2023-02-28T15:17:21;4.00;89.30
8340;DHT22;4207;49.314;7.162;2023-02-28T15:19:52;4.00;88.90
8340;DHT22;4207;49.314;7.162;2023-02-28T15:22:28;4.00;89.30
8340;DHT22;4207;49.314;7.162;2023-02-28T15:24:59;4.00;89.20
8340;DHT22;4207;49.314;7.162;2023-02-28T15:27:31;4.10;89.70
8340;DHT22;4207;49.314;7.162;2023-02-28T15:30:05;4.00;90.00
8340;DHT22;4207;49.314;7.162;2023-02-28T15:32:38;4.00;89.50
8340;DHT22;4207;49.314;7.162;2023-02-28T15:35:26;3.90;90.10
8340;DHT22;4207;49.314;7.162;2023-02-28T15:37:56;3.90;90.30
8340;DHT22;4207;49.314;7.162;2023-02-28T15:40:30;3.90;90.20
8340;DHT22;4207;49.314;7.162;2023-02-28T15:43:03;3.90;90.40
8340;DHT22;4207;49.314;7.162;2023-02-28T15:45:37;3.90;90.50
8340;DHT22;4207;49.314;7.162;2023-02-28T15:48:20;3.90;90.70
8340;DHT22;4207;49.314;7.162;2023-02-28T15:50:55;3.80;90.60
8340;DHT22;4207;49.314;7.162;2023-02-28T15:53:25;3.80;90.80
8340;DHT22;4207;49.314;7.162;2023-02-28T15:55:59;3.80;90.80
8340;DHT22;4207;49.314;7.162;2023-02-28T15:58:30;3.70;90.70
8340;DHT22;4207;49.314;7.162;2023-02-28T16:01:06;3.70;90.80
8340;DHT22;4207;49.314;7.162;2023-02-28T16:03:40;3.80;90.80
8340;DHT22;4207;49.314;7.162;2023-02-28T16:06:17;4.00;91.10
8340;DHT22;4207;49.314;7.162;2023-02-28T16:08:49;3.60;90.90
8340;DHT22;4207;49.314;7.162;2023-02-28T16:11:20;4.00;91.20
8340;DHT22;4207;49.314;7.162;2023-02-28T16:13:50;3.50;90.80
8340;DHT22;4207;49.314;7.162;2023-02-28T16:16:19;3.50;90.90
8340;DHT22;4207;49.314;7.162;2023-02-28T16:18:51;3.50;91.10
8340;DHT22;4207;49.314;7.162;2023-02-28T16:21:19;3.40;91.10
8340;DHT22;4207;49.314;7.162;2023-02-28T16:23:47;3.40;91.40
8340;DHT22;4207;49.314;7.162;2023-02-28T16:26:21;3.40;91.40
8340;DHT22;4207;49.314;7.162;2023-02-28T16:28:51;3.40;91.40
8340;DHT22;4207;49.314;7.162;2023-02-28T16:31:20;3.30;91.50
8340;DHT22;4207;49.314;7.162;2023-02-28T16:33:48;3.30;91.40
8340;DHT22;4207;49.314;7.162;2023-02-28T16:36:18;3.20;91.40
8340;DHT22;4207;49.314;7.162;2023-02-28T16:38:47;3.50;91.50
8340;DHT22;4207;49.314;7.162;2023-02-28T16:41:18;3.20;91.40
8340;DHT22;4207;49.314;7.162;2023-02-28T16:43:51;3.10;91.60
8340;DHT22;4207;49.314;7.162;2023-02-28T16:46:20;3.00;91.70
8340;DHT22;4207;49.314;7.162;2023-02-28T16:48:49;3.00;92.00
8340;DHT22;4207;49.314;7.162;2023-02-28T16:51:18;3.00;92.20
8340;DHT22;4207;49.314;7.162;2023-02-28T16:53:46;2.90;92.00
8340;DHT22;4207;49.314;7.162;2023-02-28T16:56:17;2.80;92.10
8340;DHT22;4207;49.314;7.162;2023-02-28T16:58:46;2.80;92.10
8340;DHT22;4207;49.314;7.162;2023-02-28T17:01:17;2.70;92.00
8340;DHT22;4207;49.314;7.162;2023-02-28T17:03:49;2.90;92.20
8340;DHT22;4207;49.314;7.162;2023-02-28T17:06:22;3.10;92.40